Time;durP1;ratioP1;P1;durP2;ratioP2;P2;SDS_P1;SDS_P2;PMS_P1;PMS_P2;Temp;Humidity;BMP_temperature;BMP_pressure;BME280_temperature;BME280_humidity;BME280_pressure;Samples;Min_cycle;Max_cycle;Signal;HPM_P1;HPM_P2
2022/06/24 00:00:54;;;;;;;32.85;29.63;;;;;;;;;;5014080;28;20059;-79
2022/06/24 00:03:21;;;;;;;36.45;32.58;;;;;;;;;;5014519;28;20032;-82
2022/06/24 00:05:47;;;;;;;34.45;30.95;;;;;;;;;;5013892;28;20022;-85
2022/06/24 00:08:13;;;;;;;37.88;33.78;;;;;;;;;;5014602;28;20053;-80
2022/06/24 00:10:40;;;;;;;34.38;31.30;;;;;;;;;;5011667;28;20033;-81
2022/06/24 00:13:07;;;;;;;36.45;32.97;;;;;;;;;;4997889;28;20037;-84
2022/06/24 00:15:33;;;;;;;34.08;30.80;;;;;;;;;;5006604;28;20400;-82
2022/06/24 00:18:15;;;;;;;34.80;31.10;;;;;;;;;;5010156;28;20026;-82
2022/06/24 00:20:45;;;;;;;34.53;31.00;;;;;;;;;;5016538;28;20030;-81
2022/06/24 00:23:12;;;;;;;37.00;32.03;;;;;;;;;;5002980;28;20022;-80
2022/06/24 00:25:38;;;;;;;35.83;32.17;;;;;;;;;;5006471;28;20029;-81
2022/06/24 00:28:10;;;;;;;33.83;30.45;;;;;;;;;;5006168;28;20022;-81
2022/06/24 00:30:37;;;;;;;37.13;33.33;;;;;;;;;;5007730;28;20108;-80
2022/06/24 00:33:16;;;;;;;35.03;31.30;;;;;;;;;;5011896;28;20080;-80
2022/06/24 00:35:43;;;;;;;35.75;32.10;;;;;;;;;;5006424;28;20057;-80
2022/06/24 00:38:23;;;;;;;34.97;31.08;;;;;;;;;;5005412;28;20022;-80
2022/06/24 00:40:50;;;;;;;33.45;30.08;;;;;;;;;;5016012;28;20152;-80
2022/06/24 00:43:23;;;;;;;32.75;29.45;;;;;;;;;;5006963;28;20022;-80
2022/06/24 00:45:52;;;;;;;40.55;32.65;;;;;;;;;;5013537;28;20025;-82
2022/06/24 00:48:20;;;;;;;34.88;31.40;;;;;;;;;;5016544;28;20025;-81
2022/06/24 00:50:47;;;;;;;34.67;31.08;;;;;;;;;;5014207;28;20396;-83
2022/06/24 00:53:13;;;;;;;32.92;29.55;;;;;;;;;;5016682;28;20460;-82
2022/06/24 00:55:41;;;;;;;34.92;31.38;;;;;;;;;;5016294;28;20546;-83
2022/06/24 00:58:12;;;;;;;39.25;32.40;;;;;;;;;;5004731;28;20484;-82
2022/06/24 01:00:38;;;;;;;35.35;30.75;;;;;;;;;;5024990;28;20105;-82
2022/06/24 01:03:05;;;;;;;32.42;29.33;;;;;;;;;;5006096;28;20153;-82
2022/06/24 01:05:32;;;;;;;36.10;31.75;;;;;;;;;;5005193;28;20029;-82
2022/06/24 01:07:58;;;;;;;32.50;29.45;;;;;;;;;;5007311;28;20027;-83
2022/06/24 01:10:25;;;;;;;34.80;31.05;;;;;;;;;;5009903;28;20033;-84
2022/06/24 01:12:51;;;;;;;35.63;32.17;;;;;;;;;;5015983;28;20075;-79
2022/06/24 01:15:18;;;;;;;31.60;28.48;;;;;;;;;;5015249;28;20053;-79
2022/06/24 01:17:44;;;;;;;31.88;28.80;;;;;;;;;;5029853;28;20030;-80
2022/06/24 01:20:11;;;;;;;32.47;29.00;;;;;;;;;;5016174;28;20460;-79
2022/06/24 01:22:38;;;;;;;32.15;28.90;;;;;;;;;;5034579;28;20036;-80
2022/06/24 01:25:04;;;;;;;31.15;27.65;;;;;;;;;;5012314;28;20046;-80
2022/06/24 01:27:30;;;;;;;33.88;27.58;;;;;;;;;;4997385;28;20495;-80
2022/06/24 01:29:56;;;;;;;29.63;26.77;;;;;;;;;;5010343;28;20030;-82
2022/06/24 01:32:22;;;;;;;29.92;27.13;;;;;;;;;;5030642;28;20026;-82
2022/06/24 01:34:48;;;;;;;39.45;30.73;;;;;;;;;;5015390;28;20484;-80
2022/06/24 01:37:15;;;;;;;33.03;29.80;;;;;;;;;;5032340;28;20083;-78
2022/06/24 01:39:41;;;;;;;31.85;28.15;;;;;;;;;;5034246;28;20037;-78
2022/06/24 01:42:07;;;;;;;31.40;28.40;;;;;;;;;;5016145;28;20028;-79
2022/06/24 01:44:34;;;;;;;32.80;29.50;;;;;;;;;;5016046;28;20026;-79
2022/06/24 01:47:00;;;;;;;33.65;30.10;;;;;;;;;;5016518;28;20018;-79
2022/06/24 01:49:26;;;;;;;37.78;34.17;;;;;;;;;;5033887;28;20045;-79
2022/06/24 01:51:54;;;;;;;28.15;25.30;;;;;;;;;;5016344;28;20466;-80
2022/06/24 01:54:20;;;;;;;29.75;26.83;;;;;;;;;;5032082;28;20026;-79
2022/06/24 01:56:46;;;;;;;29.90;27.02;;;;;;;;;;5016172;28;20025;-78
2022/06/24 01:59:14;;;;;;;28.75;25.73;;;;;;;;;;5015983;28;20021;-78
2022/06/24 02:01:40;;;;;;;28.58;25.70;;;;;;;;;;5016038;28;20026;-78
2022/06/24 02:04:07;;;;;;;27.75;24.83;;;;;;;;;;5008881;28;20501;-78
2022/06/24 02:06:33;;;;;;;28.30;25.58;;;;;;;;;;5018594;28;20033;-79
2022/06/24 02:08:59;;;;;;;29.52;26.45;;;;;;;;;;5007599;28;20104;-81
2022/06/24 02:14:10;;;;;;;29.02;25.40;;;;;;;;;;5016658;28;20037;-80
2022/06/24 02:16:38;;;;;;;32.00;28.08;;;;;;;;;;5004617;28;20125;-82
2022/06/24 02:19:04;;;;;;;28.27;25.45;;;;;;;;;;5015986;28;20488;-81
2022/06/24 02:21:30;;;;;;;29.27;26.38;;;;;;;;;;5016187;28;20068;-81
2022/06/24 02:23:56;;;;;;;26.73;24.17;;;;;;;;;;5016159;28;20026;-82
2022/06/24 02:26:23;;;;;;;27.27;24.75;;;;;;;;;;5016250;28;20021;-83
2022/06/24 02:28:49;;;;;;;28.20;24.25;;;;;;;;;;5011568;28;20022;-81
2022/06/24 02:31:15;;;;;;;25.83;23.10;;;;;;;;;;5023270;28;20468;-81
2022/06/24 02:33:41;;;;;;;27.65;24.58;;;;;;;;;;5007185;28;20021;-82
2022/06/24 02:36:08;;;;;;;27.92;25.02;;;;;;;;;;5015653;28;20034;-81
2022/06/24 02:38:34;;;;;;;29.20;26.23;;;;;;;;;;5015978;28;20021;-81
2022/06/24 02:41:00;;;;;;;30.98;27.73;;;;;;;;;;5016003;28;20026;-82
2022/06/24 02:43:31;;;;;;;51.03;45.53;;;;;;;;;;5014364;28;20148;-83
2022/06/24 02:46:11;;;;;;;32.25;27.63;;;;;;;;;;5001646;28;20014;-85
2022/06/24 02:48:37;;;;;;;28.60;25.60;;;;;;;;;;5021094;28;20050;-81
2022/06/24 02:51:04;;;;;;;29.65;26.48;;;;;;;;;;5022336;28;20045;-82
2022/06/24 02:53:32;;;;;;;31.02;27.95;;;;;;;;;;5014021;28;20021;-83
2022/06/24 02:55:59;;;;;;;31.23;26.27;;;;;;;;;;4998661;28;20029;-82
2022/06/24 02:58:25;;;;;;;30.65;27.58;;;;;;;;;;5014653;28;20495;-82
2022/06/24 03:00:51;;;;;;;29.95;26.88;;;;;;;;;;5009214;28;20032;-81
2022/06/24 03:03:18;;;;;;;27.55;24.67;;;;;;;;;;5007361;28;20032;-82
2022/06/24 03:05:44;;;;;;;29.33;26.42;;;;;;;;;;5009096;28;20097;-82
2022/06/24 03:08:12;;;;;;;32.13;28.65;;;;;;;;;;5025509;28;20057;-80
2022/06/24 03:10:39;;;;;;;32.50;29.02;;;;;;;;;;5012542;28;20025;-81
2022/06/24 03:13:05;;;;;;;34.45;27.95;;;;;;;;;;5015472;28;20020;-81
2022/06/24 03:15:31;;;;;;;34.50;28.63;;;;;;;;;;5015061;28;20033;-80
2022/06/24 03:17:58;;;;;;;35.53;31.60;;;;;;;;;;5014892;28;20032;-81
2022/06/24 03:20:24;;;;;;;30.88;27.80;;;;;;;;;;5015225;28;20102;-81
2022/06/24 03:22:50;;;;;;;33.17;29.77;;;;;;;;;;5015115;28;20025;-81
2022/06/24 03:25:17;;;;;;;35.85;30.25;;;;;;;;;;5015373;28;20384;-81
2022/06/24 03:27:43;;;;;;;36.88;33.00;;;;;;;;;;5015269;28;20025;-82
2022/06/24 03:30:10;;;;;;;34.17;30.77;;;;;;;;;;5013586;28;20088;-81
2022/06/24 03:32:36;;;;;;;39.08;34.70;;;;;;;;;;5015149;28;20071;-81
2022/06/24 03:35:02;;;;;;;33.63;30.45;;;;;;;;;;5032735;28;20384;-81
2022/06/24 03:37:30;;;;;;;34.13;30.80;;;;;;;;;;5014980;28;20041;-81
2022/06/24 03:39:58;;;;;;;34.75;31.35;;;;;;;;;;5022271;28;20040;-81
2022/06/24 03:42:24;;;;;;;37.17;33.28;;;;;;;;;;5011409;28;20028;-82
2022/06/24 03:44:50;;;;;;;33.15;29.63;;;;;;;;;;5014545;28;20056;-82
2022/06/24 03:47:16;;;;;;;32.78;29.38;;;;;;;;;;5014606;28;20017;-82
2022/06/24 03:49:43;;;;;;;31.70;28.63;;;;;;;;;;5014687;28;20057;-82
2022/06/24 03:52:09;;;;;;;30.42;27.42;;;;;;;;;;5010237;28;20032;-81
2022/06/24 03:54:35;;;;;;;32.78;29.33;;;;;;;;;;5012730;28;20026;-82
2022/06/24 03:57:02;;;;;;;34.90;29.95;;;;;;;;;;5011510;28;20104;-82
2022/06/24 03:59:28;;;;;;;33.53;29.80;;;;;;;;;;5022816;28;20022;-82
2022/06/24 04:01:54;;;;;;;33.22;29.90;;;;;;;;;;5009540;28;20468;-81
2022/06/24 04:04:20;;;;;;;29.80;26.92;;;;;;;;;;5014669;28;20014;-82
2022/06/24 04:06:46;;;;;;;33.05;29.08;;;;;;;;;;5009575;28;20033;-84
2022/06/24 04:09:12;;;;;;;32.10;28.75;;;;;;;;;;5003899;28;20366;-83
2022/06/24 04:11:38;;;;;;;34.40;30.38;;;;;;;;;;5028018;28;20109;-83
2022/06/24 04:14:04;;;;;;;32.70;29.52;;;;;;;;;;4997503;28;20057;-82
2022/06/24 04:16:30;;;;;;;32.45;29.13;;;;;;;;;;5000201;28;20071;-83
2022/06/24 04:18:56;;;;;;;32.75;29.48;;;;;;;;;;5018448;28;20875;-84
2022/06/24 04:21:23;;;;;;;39.08;29.98;;;;;;;;;;5018556;28;20034;-83
2022/06/24 04:23:49;;;;;;;34.17;29.10;;;;;;;;;;5008474;28;20072;-83
2022/06/24 04:26:15;;;;;;;33.03;28.17;;;;;;;;;;5017980;28;20021;-82
2022/06/24 04:28:41;;;;;;;32.70;28.63;;;;;;;;;;5002095;28;20021;-82
2022/06/24 04:31:07;;;;;;;35.10;31.15;;;;;;;;;;5005015;28;20018;-82
2022/06/24 04:33:33;;;;;;;31.55;28.30;;;;;;;;;;5010835;28;20243;-82
2022/06/24 04:35:59;;;;;;;27.95;25.13;;;;;;;;;;5010224;28;20477;-82
2022/06/24 04:38:25;;;;;;;29.17;26.20;;;;;;;;;;5009956;28;20550;-82
2022/06/24 04:40:51;;;;;;;30.25;26.77;;;;;;;;;;5006325;28;20014;-82
2022/06/24 04:43:17;;;;;;;28.70;25.30;;;;;;;;;;5003584;28;20109;-82
2022/06/24 04:45:44;;;;;;;30.77;27.80;;;;;;;;;;5021601;28;20266;-81
2022/06/24 04:48:10;;;;;;;31.25;26.58;;;;;;;;;;5001238;28;20021;-84
2022/06/24 04:50:36;;;;;;;31.95;28.02;;;;;;;;;;5003083;28;20050;-83
2022/06/24 04:53:03;;;;;;;33.17;27.20;;;;;;;;;;5019962;28;20032;-84
2022/06/24 04:55:29;;;;;;;27.20;24.60;;;;;;;;;;5004452;28;20044;-82
2022/06/24 04:57:55;;;;;;;26.42;23.83;;;;;;;;;;5024823;28;20025;-82
2022/06/24 05:00:22;;;;;;;33.08;26.02;;;;;;;;;;5022068;28;20080;-81
2022/06/24 05:02:48;;;;;;;26.83;24.10;;;;;;;;;;4999555;28;20021;-83
2022/06/24 05:05:14;;;;;;;27.20;24.25;;;;;;;;;;4994687;28;20053;-82
2022/06/24 05:07:40;;;;;;;29.42;26.52;;;;;;;;;;5015413;28;20026;-81
2022/06/24 05:10:07;;;;;;;28.10;25.40;;;;;;;;;;5021228;28;20067;-84
2022/06/24 05:12:33;;;;;;;30.42;27.05;;;;;;;;;;5026625;28;20041;-82
2022/06/24 05:14:59;;;;;;;29.40;26.33;;;;;;;;;;5003422;28;20026;-82
2022/06/24 05:17:29;;;;;;;33.42;27.77;;;;;;;;;;5026420;28;20018;-82
2022/06/24 05:19:55;;;;;;;34.63;31.33;;;;;;;;;;5024470;28;20022;-81
2022/06/24 05:22:21;;;;;;;31.98;28.98;;;;;;;;;;5007423;28;20022;-82
2022/06/24 05:24:47;;;;;;;29.30;26.40;;;;;;;;;;5012477;28;20477;-82
2022/06/24 05:27:13;;;;;;;31.58;28.35;;;;;;;;;;5002548;28;20014;-84
2022/06/24 05:29:39;;;;;;;29.23;26.20;;;;;;;;;;5007090;28;20045;-81
2022/06/24 05:32:05;;;;;;;30.02;27.05;;;;;;;;;;5001031;28;20632;-82
2022/06/24 05:34:31;;;;;;;31.80;27.98;;;;;;;;;;5007590;28;20064;-83
2022/06/24 05:36:57;;;;;;;29.33;26.33;;;;;;;;;;4999957;28;20026;-82
2022/06/24 05:39:23;;;;;;;30.50;27.38;;;;;;;;;;5030608;28;20100;-82
2022/06/24 05:41:49;;;;;;;32.35;28.35;;;564.00;2432.00;;;;;;5023366;28;20504;-82
2022/06/24 05:44:15;;;;;;;29.27;26.25;;;563.90;2432.00;;;;;;5023320;28;20068;-82
2022/06/24 05:46:40;;;;;;;28.13;24.48;;;564.00;2432.00;;;;;;5012675;28;20025;-82
2022/06/24 05:49:07;;;;;;;30.27;26.77;;;;;;;;;;5025952;28;20129;-81
2022/06/24 05:51:36;;;;;;;30.23;26.73;;;;;;;;;;5011922;28;20056;-81
2022/06/24 05:56:47;;;;;;;28.10;25.20;;;588.80;2432.00;;;;;;5033815;28;20076;-82
2022/06/24 05:59:13;;;;;;;28.35;25.05;;;588.80;2432.00;;;;;;5016080;28;20041;-83
2022/06/24 06:01:39;;;;;;;27.63;24.50;;;588.90;2432.00;;;;;;5029478;28;20026;-82
2022/06/24 06:04:05;;;;;;;29.80;25.77;;;;;;;;;;5016344;28;20034;-82
2022/06/24 06:06:30;;;;;;;33.45;27.23;;;589.10;2432.00;;;;;;5010048;28;20370;-82
2022/06/24 06:08:57;;;;;;;31.98;26.65;;;589.10;2432.00;;;;;;5023226;28;20473;-82
2022/06/24 06:11:24;;;;;;;29.42;26.70;;;;;;;;;;5012984;28;20022;-83
2022/06/24 06:13:52;;;;;;;50.50;44.88;;;;;;;;;;5010027;28;20067;-82
2022/06/24 06:16:18;;;;;;;35.80;29.92;;;;;;;;;;5016833;28;20595;-82
2022/06/24 06:18:44;;;;;;;33.58;29.42;;;;;;;;;;5012839;28;20396;-81
2022/06/24 06:21:11;;;;;;;30.65;27.42;;;;;;;;;;5033976;28;20021;-82
2022/06/24 06:23:38;;;;;;;32.70;27.73;;;;;;;;;;5010536;28;20030;-82
2022/06/24 06:26:06;;;;;;;33.95;28.92;;;;;;;;;;5022828;28;20025;-81
2022/06/24 06:28:32;;;;;;;38.08;28.92;;;;;;;;;;5010111;28;20022;-82
2022/06/24 06:30:58;;;;;;;29.20;23.95;;;;;;;;;;5008158;28;20130;-82
2022/06/24 06:33:25;;;;;;;26.67;23.83;;;;;;;;;;5004300;28;20156;-82
2022/06/24 06:35:51;;;;;;;26.55;23.17;;;;;;;;;;5016544;28;20034;-82
2022/06/24 06:38:17;;;;;;;29.90;24.77;;;;;;;;;;5026066;28;20099;-81
2022/06/24 06:40:43;;;;;;;25.48;22.20;;;;;;;;;;5032364;28;20022;-84
2022/06/24 06:43:10;;;;;;;31.15;24.20;;;;;;;;;;5012550;28;20066;-83
2022/06/24 06:45:37;;;;;;;26.27;19.33;;;;;;;;;;5013649;28;20033;-81
2022/06/24 06:48:04;;;;;;;22.80;20.42;;;;;;;;;;5003261;28;20057;-82
2022/06/24 06:50:30;;;;;;;33.67;21.48;;;;;;;;;;5018976;28;20045;-82
2022/06/24 06:52:56;;;;;;;38.67;21.20;;;;;;;;;;4999660;28;20013;-83
2022/06/24 06:55:22;;;;;;;21.67;19.48;;;;;;;;;;5015017;28;20401;-82
2022/06/24 06:57:50;;;;;;;28.35;21.02;;;;;;;;;;5014090;28;20026;-82
2022/06/24 07:00:17;;;;;;;35.75;24.23;;;;;;;;;;5032615;28;20026;-81
2022/06/24 07:02:43;;;;;;;22.60;19.70;;;;;;;;;;5020417;28;20061;-83
2022/06/24 07:05:09;;;;;;;23.70;21.08;;;;;;;;;;5030058;28;20021;-81
2022/06/24 07:07:35;;;;;;;20.10;18.08;;;;;;;;;;5030683;28;20045;-81
2022/06/24 07:10:01;;;;;;;22.80;19.52;;;;;;;;;;5008416;28;20026;-78
2022/06/24 07:12:27;;;;;;;26.40;19.60;;;;;;;;;;5004090;28;20029;-78
2022/06/24 07:14:53;;;;;;;18.92;16.48;;;;;;;;;;5017461;28;20034;-79
2022/06/24 07:17:20;;;;;;;21.58;17.65;;;;;;;;;;5031990;28;20018;-79
2022/06/24 07:19:46;;;;;;;27.90;17.80;;;;;;;;;;5028338;28;20550;-77
2022/06/24 07:22:13;;;;;;;26.58;19.30;;;;;;;;;;5027320;28;20518;-78
2022/06/24 07:24:39;;;;;;;30.70;26.60;;;;;;;;;;5019122;28;20018;-78
2022/06/24 07:27:06;;;;;;;20.92;17.38;;;;;;;;;;5028180;28;20127;-77
2022/06/24 07:29:33;;;;;;;17.75;14.45;;;;;;;;;;5022966;28;20050;-77
2022/06/24 07:31:59;;;;;;;29.17;24.48;;;;;;;;;;5015111;28;20474;-78
2022/06/24 07:34:30;;;;;;;33.92;26.67;;;;;;;;;;4992706;28;20018;-78
2022/06/24 07:36:56;;;;;;;14.95;10.60;;;;;;;;;;5010894;28;20034;-78
2022/06/24 07:39:23;;;;;;;14.52;10.60;;;;;;;;;;5030555;28;20461;-77
2022/06/24 07:41:49;;;;;;;16.00;10.23;;;;;;;;;;5020224;28;20022;-77
2022/06/24 07:44:15;;;;;;;17.42;10.90;;;;;;;;;;5026036;28;20029;-82
2022/06/24 07:46:41;;;;;;;14.68;10.48;;;;;;;;;;5022236;28;20477;-81
2022/06/24 07:49:07;;;;;;;18.42;11.98;;;;;;;;;;5032036;28;20378;-81
2022/06/24 07:51:33;;;;;;;21.23;18.83;;;;;;;;;;5031712;28;20393;-80
2022/06/24 07:53:59;;;;;;;11.77;10.57;;;;;;;;;;5013961;28;20097;-80
2022/06/24 07:59:10;;;;;;;14.43;10.48;;;;;;;;;;5027080;28;20035;-81
2022/06/24 08:01:36;;;;;;;13.52;12.13;;;;;;;;;;5011404;28;20022;-82
2022/06/24 08:04:07;;;;;;;13.85;12.45;;;;;;;;;;5027162;28;20022;-80
2022/06/24 08:06:34;;;;;;;17.38;10.75;;;;;;;;;;5028010;28;20021;-80
2022/06/24 08:09:00;;;;;;;12.85;9.05;;;;;;;;;;5030372;28;20017;-79
2022/06/24 08:11:26;;;;;;;34.22;22.88;;;;;;;;;;5008960;28;20026;-79
2022/06/24 08:13:52;;;;;;;16.88;9.82;;;;;;;;;;5028146;28;20013;-79
2022/06/24 08:16:18;;;;;;;12.52;9.00;;;;;;;;;;5025293;28;20025;-80
2022/06/24 08:18:44;;;;;;;12.20;7.55;;;;;;;;;;5010428;28;20028;-81
2022/06/24 08:21:11;;;;;;;15.02;8.60;;;;;;;;;;5025084;28;20021;-80
2022/06/24 08:23:37;;;;;;;12.40;8.60;;;;;;;;;;5030749;28;20025;-81
2022/06/24 08:26:03;;;;;;;11.77;8.45;;;;;;;;;;5022523;28;20470;-79
2022/06/24 08:28:29;;;;;;;11.98;7.88;;;;;;;;;;5004629;28;20072;-80
2022/06/24 08:30:55;;;;;;;14.38;7.47;;;;;;;;;;5009048;28;20096;-81
2022/06/24 08:33:21;;;;;;;18.27;10.57;;;;;;;;;;5009853;28;20491;-80
2022/06/24 08:35:47;;;;;;;13.15;9.23;;;;;;;;;;5007233;28;20030;-80
2022/06/24 08:38:15;;;;;;;14.48;7.97;;;;;;;;;;5028735;28;20032;-76
2022/06/24 08:40:42;;;;;;;9.07;7.50;;;;;;;;;;5002660;28;20014;-77
2022/06/24 08:43:09;;;;;;;13.50;8.85;;;;;;;;;;5022610;28;20026;-77
2022/06/24 08:45:35;;;;;;;11.07;8.52;;;;;;;;;;5025607;28;20036;-78
2022/06/24 08:48:02;;;;;;;15.02;12.98;;;;;;;;;;5033957;28;20017;-77
2022/06/24 08:50:28;;;;;;;10.30;6.88;;;;;;;;;;5025517;28;20077;-78
2022/06/24 08:52:55;;;;;;;28.73;23.02;;;;;;;;;;5010858;28;20018;-78
2022/06/24 08:55:22;;;;;;;16.95;15.18;;;;;;;;;;5010847;28;20037;-77
2022/06/24 08:57:48;;;;;;;13.48;6.85;;;;;;;;;;5013127;28;20117;-76
2022/06/24 09:00:14;;;;;;;11.52;6.03;;;;;;;;;;5015105;28;20021;-77
2022/06/24 09:02:41;;;;;;;31.52;26.30;;;;;;;;;;5007785;28;20033;-77
2022/06/24 09:05:11;;;;;;;7.63;5.57;;;;;;;;;;5034846;28;20022;-78
2022/06/24 09:07:38;;;;;;;16.80;5.60;;;;;;;;;;5021652;28;20113;-80
2022/06/24 09:10:05;;;;;;;6.78;5.13;;;;;;;;;;5019841;28;20036;-77
2022/06/24 09:12:38;;;;;;;7.32;3.92;;;;;;;;;;5016467;28;20152;-78
2022/06/24 09:15:04;;;;;;;10.43;4.65;;;;;;;;;;5033593;28;20037;-77
2022/06/24 09:17:31;;;;;;;13.23;5.85;;;;;;;;;;5008404;28;20381;-77
2022/06/24 09:20:05;;;;;;;5.35;4.35;;;;;;;;;;5011840;28;20022;-77
2022/06/24 09:22:32;;;;;;;30.98;27.65;;;;;;;;;;5031030;28;20017;-77
2022/06/24 09:24:59;;;;;;;36.67;32.58;;;;;;;;;;5033843;28;20100;-78
2022/06/24 09:27:26;;;;;;;23.77;20.33;;;;;;;;;;5013782;28;20072;-77
2022/06/24 09:29:52;;;;;;;32.10;26.58;;;;;;;;;;5024377;28;20064;-78
2022/06/24 09:32:19;;;;;;;21.08;14.27;;;;;;;;;;5018946;28;20018;-77
2022/06/24 09:35:04;;;;;;;17.80;14.40;;;;;;;;;;5012940;28;20026;-78
2022/06/24 09:37:44;;;;;;;30.15;26.13;;;;;;;;;;5023306;28;20017;-78
2022/06/24 09:40:20;;;;;;;19.33;15.32;;;;;;;;;;5011753;28;20121;-78
2022/06/24 09:42:57;;;;;;;10.77;8.20;;;;;;;;;;5024710;28;20021;-77
2022/06/24 09:45:23;;;;;;;18.33;14.73;;;;;;;;;;5015791;28;20025;-77
2022/06/24 09:47:50;;;;;;;14.80;10.13;;;;;;;;;;5034022;28;20057;-76
2022/06/24 09:50:17;;;;;;;8.68;7.80;;;;;;;;;;5033542;28;20052;-77
2022/06/24 09:52:44;;;;;;;13.55;11.05;;;;;;;;;;5025142;28;20132;-76
2022/06/24 09:55:10;;;;;;;11.50;7.18;;;;;;;;;;5010902;28;20029;-77
2022/06/24 09:57:37;;;;;;;12.63;6.82;;;;;;;;;;5032558;28;20022;-77
2022/06/24 10:02:50;;;;;;;13.77;11.05;;;;;;;;;;5021625;28;20155;-77
2022/06/24 10:05:18;;;;;;;17.45;14.30;;;;;;;;;;5012546;28;20022;-79
2022/06/24 10:07:46;;;;;;;12.10;8.80;;;;;;;;;;5027219;28;20033;-77
2022/06/24 10:10:12;;;;;;;8.65;6.43;;;;;;;;;;5026426;28;20022;-78
2022/06/24 10:12:46;;;;;;;13.95;9.13;;;;;;;;;;5028783;28;20022;-78
2022/06/24 10:15:13;;;;;;;10.63;9.35;;;;;;;;;;4996025;28;20072;-77
2022/06/24 10:17:40;;;;;;;7.65;6.30;;;;;;;;;;4997218;28;20083;-77
2022/06/24 10:20:07;;;;;;;9.48;5.60;;;;;;;;;;5023704;28;20029;-77
2022/06/24 10:22:43;;;;;;;11.85;8.02;;;;;;;;;;5014385;28;20026;-78
2022/06/24 10:25:09;;;;;;;10.60;7.68;;;;;;;;;;5023373;28;20025;-77
2022/06/24 10:28:13;;;;;;;7.63;6.35;;;;;;;;;;5026796;28;20021;-76
2022/06/24 10:30:39;;;;;;;11.82;6.22;;;;;;;;;;4945675;29;20097;-77
2022/06/24 10:33:19;;;;;;;12.40;10.02;;;;;;;;;;4952075;29;20034;-77
2022/06/24 10:35:59;;;;;;;12.93;7.53;;;;;;;;;;4970154;28;20038;-77
2022/06/24 10:38:42;;;;;;;21.30;18.20;;;;;;;;;;5015852;28;20026;-78
2022/06/24 10:41:11;;;;;;;9.52;4.68;;;;;;;;;;5011274;28;20108;-77
2022/06/24 10:43:44;;;;;;;11.85;6.03;;;;;;;;;;5015171;28;20021;-76
2022/06/24 10:46:13;;;;;;;9.68;4.57;;;;;;;;;;5014774;28;20061;-78
2022/06/24 10:48:47;;;;;;;8.55;5.28;;;;;;;;;;5032497;28;20163;-77
2022/06/24 10:51:22;;;;;;;6.20;4.53;;;;;;;;;;5030469;28;20091;-77
2022/06/24 10:54:09;;;;;;;14.43;7.68;;;;;;;;;;5004563;28;20495;-77
2022/06/24 10:56:35;;;;;;;12.02;9.85;;;;;;;;;;5011356;28;20397;-78
2022/06/24 10:59:01;;;;;;;20.45;13.25;;;;;;;;;;5022742;28;20025;-77
2022/06/24 11:01:27;;;;;;;14.32;10.95;;;;;;;;;;5012372;28;20030;-77
2022/06/24 11:03:53;;;;;;;27.17;18.15;;;;;;;;;;5014974;28;20017;-78
2022/06/24 11:06:20;;;;;;;21.55;17.50;;;;;;;;;;5014968;28;20055;-77
2022/06/24 11:08:46;;;;;;;15.57;8.35;;;;;;;;;;5002135;28;20026;-77
2022/06/24 11:11:24;;;;;;;12.52;9.50;;;;;;;;;;5000318;28;20029;-78
2022/06/24 11:13:51;;;;;;;18.58;11.40;;;;;;;;;;5011905;28;20018;-77
2022/06/24 11:16:17;;;;;;;20.05;17.58;;;;;;;;;;5011723;28;20030;-78
2022/06/24 11:18:43;;;;;;;29.80;23.00;;;;;;;;;;5014685;28;20022;-77
2022/06/24 11:21:09;;;;;;;23.25;18.58;;;;;;;;;;5017121;28;20014;-77
2022/06/24 11:23:40;;;;;;;42.17;36.72;;;;;;;;;;5013558;28;20029;-77
2022/06/24 11:26:10;;;;;;;18.45;14.55;;;;;;;;;;5024427;28;20033;-78
2022/06/24 11:28:38;;;;;;;10.32;7.35;;;;;;;;;;5025021;28;20044;-76
2022/06/24 11:31:33;;;;;;;9.88;7.55;;;;;;;;;;5020369;28;21594;-77
2022/06/24 11:33:59;;;;;;;14.98;8.93;;;;;;;;;;4978373;28;20049;-77
2022/06/24 11:36:27;;;;;;;28.95;9.40;;;;;;;;;;5025824;28;20077;-79
2022/06/24 11:39:01;;;;;;;32.25;16.35;;;;;;;;;;5030589;28;20463;-80
2022/06/24 11:41:29;;;;;;;15.48;7.63;;;;;;;;;;4997911;28;20025;-78
2022/06/24 11:43:55;;;;;;;22.20;17.65;;;;;;;;;;4996287;28;20032;-78
2022/06/24 11:46:21;;;;;;;14.27;9.75;;;;;;;;;;5013793;28;20021;-78
2022/06/24 11:48:47;;;;;;;12.73;8.18;;;;;;;;;;5031974;28;20061;-78
2022/06/24 11:51:17;;;;;;;28.63;20.23;;;;;;;;;;5012549;28;20029;-82
2022/06/24 11:53:55;;;;;;;10.90;6.90;;;;;;;;;;5004975;28;20049;-86
2022/06/24 11:56:21;;;;;;;4.35;3.95;;;;;;;;;;5015876;28;20547;-83
2022/06/24 11:58:47;;;;;;;13.40;8.98;;;;;;;;;;5006605;28;20064;-77
2022/06/24 12:01:14;;;;;;;12.13;4.97;;;;;;;;;;5002930;28;20029;-80
2022/06/24 12:03:40;;;;;;;8.60;4.30;;;;;;;;;;5028506;28;20034;-79
2022/06/24 12:06:06;;;;;;;7.50;5.85;;;;;;;;;;5009112;28;20021;-80
2022/06/24 12:08:32;;;;;;;11.65;10.05;;;;;;;;;;5003130;28;20014;-81
2022/06/24 12:10:58;;;;;;;15.82;11.43;;;;;;;;;;5022589;28;20499;-82
2022/06/24 12:13:25;;;;;;;7.28;4.53;;;;;;;;;;5023028;28;20093;-80
2022/06/24 12:15:52;;;;;;;7.03;4.28;;;;;;;;;;5007818;28;20030;-80
2022/06/24 12:18:19;;;;;;;23.00;6.88;;;;;;;;;;5003630;28;20034;-83
2022/06/24 12:21:14;;;;;;;19.83;13.23;;;;;;;;;;5025439;28;20021;-79
2022/06/24 12:23:44;;;;;;;17.98;12.20;;;;;;;;;;5001263;28;20095;-79
2022/06/24 12:26:13;;;;;;;7.70;5.80;;;;;;;;;;5025426;28;20133;-80
2022/06/24 12:28:40;;;;;;;13.52;9.70;;;;;;;;;;5010791;28;21089;-78
2022/06/24 12:31:07;;;;;;;12.07;6.65;;;;;;;;;;5025458;28;20505;-78
2022/06/24 12:33:38;;;;;;;9.80;7.55;;;;;;;;;;5007211;28;20018;-79
2022/06/24 12:36:15;;;;;;;12.07;6.65;;;;;;;;;;5003533;28;20042;-78
2022/06/24 12:39:01;;;;;;;5.28;4.47;;;;;;;;;;5033750;28;20049;-80
2022/06/24 12:41:27;;;;;;;13.52;8.48;;;;;;;;;;5010775;28;20021;-79
2022/06/24 12:44:03;;;;;;;10.95;7.82;;;;;;;;;;5016252;28;20390;-79
2022/06/24 12:46:32;;;;;;;9.77;4.05;;;;;;;;;;5017112;28;20033;-80
2022/06/24 12:51:44;;;;;;;19.92;15.73;;;;;;;;;;5021700;28;20160;-80
2022/06/24 12:54:11;;;;;;;10.70;9.43;;;;;;;;;;5016899;28;20029;-78
2022/06/24 12:56:37;;;;;;;12.77;6.75;;;;;;;;;;5024997;28;20065;-79
2022/06/24 12:59:03;;;;;;;11.27;8.27;;;;;;;;;;5011170;28;20093;-80
2022/06/24 13:01:30;;;;;;;7.70;5.57;;;;;;;;;;5016804;28;20024;-80
2022/06/24 13:03:56;;;;;;;6.00;4.65;;;;;;;;;;5013292;28;20389;-81
2022/06/24 13:06:22;;;;;;;7.70;4.47;;;;;;;;;;5015307;28;20040;-80
2022/06/24 13:08:48;;;;;;;10.98;6.35;;;;;;;;;;5028479;28;20029;-76
2022/06/24 13:11:14;;;;;;;22.00;18.90;;;;;;;;;;5016700;28;20025;-80
2022/06/24 13:13:40;;;;;;;9.65;5.03;;;;;;;;;;5016814;28;20029;-79
2022/06/24 13:16:06;;;;;;;110.38;59.00;;;;;;;;;;5016814;28;20088;-80
2022/06/24 13:18:32;;;;;;;76.80;42.55;;;;;;;;;;5013000;28;20018;-79
2022/06/24 13:20:59;;;;;;;20.58;10.13;;;;;;;;;;4998725;28;20018;-79
2022/06/24 13:23:25;;;;;;;20.23;14.05;;;;;;;;;;5034497;28;20020;-79
2022/06/24 13:25:51;;;;;;;7.88;6.10;;;;;;;;;;5016371;28;20075;-80
2022/06/24 13:28:16;;;;;;;10.52;5.95;;;947.50;281.60;;;;;;5016424;28;20068;-79
2022/06/24 13:30:42;;;;;;;47.53;31.10;;;948.00;281.60;;;;;;5012981;28;20026;-79
2022/06/24 13:33:08;;;;;;;7.47;4.50;;;948.10;281.60;;;;;;5027965;28;20029;-82
2022/06/24 13:35:34;;;;;;;14.27;9.93;;;973.00;307.20;;;;;;5015939;28;20060;-80
2022/06/24 13:37:59;;;;;;;6.85;4.40;;;998.70;332.80;;;;;;5015823;28;20036;-77
2022/06/24 13:40:25;;;;;;;6.00;5.05;;;998.50;332.80;;;;;;5014898;28;20026;-77
2022/06/24 13:42:51;;;;;;;34.42;25.23;;;1024.10;332.80;;;;;;5021513;28;20072;-79
2022/06/24 13:45:16;;;;;;;32.03;25.52;;;1050.20;358.40;;;;;;5012538;28;20674;-79
2022/06/24 13:47:42;;;;;;;11.18;7.65;;;1075.60;358.40;;;;;;5028431;28;20396;-78
2022/06/24 13:50:08;;;;;;;11.65;7.82;;;1101.30;384.00;;;;;;5003282;28;20095;-78
2022/06/24 13:52:34;;;;;;;7.55;6.55;;;1101.40;384.00;;;;;;5004223;28;20098;-79
2022/06/24 13:55:00;;;;;;;13.80;11.07;;;1101.50;384.00;;;;;;5008958;28;20061;-79
2022/06/24 13:57:26;;;;;;;14.52;11.15;;;1126.50;409.60;;;;;;5026887;28;20026;-84
2022/06/24 13:59:53;;;;;;;6.53;4.97;;;1126.40;409.60;;;;;;5006460;28;20026;-80
2022/06/24 14:02:20;;;;;;;5.93;4.20;;;1101.50;384.00;;;;;;5033432;28;20025;-81
2022/06/24 14:04:46;;;;;;;23.73;19.27;;;1126.70;409.60;;;;;;5011865;28;20036;-81
2022/06/24 14:07:13;;;;;;;10.52;4.85;;;1126.80;409.60;;;;;;5015248;28;20486;-83
2022/06/24 14:09:39;;;;;;;11.32;7.68;;;1101.70;384.00;;;;;;5002100;28;20041;-83
2022/06/24 14:12:06;;;;;;;14.00;10.10;;;1126.60;409.60;;;;;;5011550;28;20026;-81
2022/06/24 14:14:32;;;;;;;48.60;38.70;;;1126.90;409.60;;;;;;5006695;28;20029;-82
2022/06/24 14:16:58;;;;;;;8.95;8.05;;;1126.50;409.60;;;;;;5012438;28;20404;-81
2022/06/24 14:19:24;;;;;;;31.10;22.23;;;1126.40;409.60;;;;;;5028547;28;20459;-81
2022/06/24 14:21:49;;;;;;;7.10;4.35;;;1126.70;409.60;;;;;;5024069;28;20022;-81